createdAt,value
2022-12-08T00:01:27.551Z,7.65
2022-12-08T00:03:56.047Z,10.10
2022-12-08T00:06:45.804Z,9.30
2022-12-08T00:09:26.370Z,8.80
2022-12-08T00:12:05.465Z,7.15
2022-12-08T00:14:37.865Z,7.97
2022-12-08T00:17:06.642Z,7.53
2022-12-08T00:19:33.823Z,6.18
2022-12-08T00:22:00.685Z,7.40
2022-12-08T00:24:32.089Z,6.72
2022-12-08T00:26:58.796Z,6.60
2022-12-08T00:29:26.004Z,6.38
2022-12-08T00:31:53.443Z,6.50
2022-12-08T00:34:20.346Z,8.15
2022-12-08T00:36:47.262Z,7.53
2022-12-08T00:39:15.406Z,6.70
2022-12-08T00:42:00.842Z,8.40
2022-12-08T00:44:27.492Z,11.38
2022-12-08T00:46:54.481Z,7.60
2022-12-08T00:49:21.222Z,7.55
2022-12-08T00:51:47.993Z,6.55
2022-12-08T00:54:15.201Z,6.95
2022-12-08T00:56:41.977Z,7.93
2022-12-08T00:59:08.667Z,11.43
2022-12-08T01:01:36.270Z,15.57
2022-12-08T01:04:08.285Z,21.48
2022-12-08T01:06:35.910Z,20.25
2022-12-08T01:09:04.628Z,10.68
2022-12-08T01:11:31.836Z,9.13
2022-12-08T01:13:58.731Z,8.68
2022-12-08T01:16:29.229Z,8.30
2022-12-08T01:18:58.051Z,7.70
2022-12-08T01:21:25.521Z,7.55
2022-12-08T01:23:52.670Z,6.72
2022-12-08T01:26:20.322Z,11.48
2022-12-08T01:28:47.783Z,10.52
2022-12-08T01:31:16.775Z,7.45
2022-12-08T01:33:43.991Z,7.20
2022-12-08T01:36:23.722Z,7.55
2022-12-08T01:38:51.447Z,10.85
2022-12-08T01:41:20.783Z,8.90
2022-12-08T01:43:59.381Z,7.57
2022-12-08T01:46:26.960Z,7.60
2022-12-08T01:48:59.649Z,7.18
2022-12-08T01:51:27.319Z,7.28
2022-12-08T01:53:54.967Z,7.80
2022-12-08T01:56:32.402Z,6.80
2022-12-08T01:58:59.936Z,7.72
2022-12-08T02:01:26.794Z,7.30
2022-12-08T02:03:58.753Z,6.35
2022-12-08T02:06:28.353Z,7.78
2022-12-08T02:08:55.978Z,7.35
2022-12-08T02:11:22.689Z,7.25
2022-12-08T02:13:52.107Z,6.70
2022-12-08T02:16:42.022Z,7.35
2022-12-08T02:19:31.202Z,6.97
2022-12-08T02:22:01.301Z,6.75
2022-12-08T02:24:40.393Z,6.65
2022-12-08T02:27:25.230Z,6.75
2022-12-08T02:29:57.579Z,6.57
2022-12-08T02:35:18.552Z,7.20
2022-12-08T02:38:09.746Z,7.00
2022-12-08T02:40:42.411Z,6.57
2022-12-08T02:43:22.178Z,7.10
2022-12-08T02:45:54.065Z,7.70
2022-12-08T02:48:20.924Z,7.93
2022-12-08T02:50:47.601Z,7.15
2022-12-08T02:56:06.879Z,7.82
2022-12-08T02:59:06.882Z,6.80
2022-12-08T03:02:02.148Z,7.95
2022-12-08T03:04:28.992Z,6.72
2022-12-08T03:07:10.615Z,7.15
2022-12-08T03:09:49.949Z,7.57
2022-12-08T03:12:18.879Z,8.25
2022-12-08T03:14:51.840Z,7.55
2022-12-08T03:17:22.527Z,6.93
2022-12-08T03:19:49.790Z,7.22
2022-12-08T03:22:21.625Z,7.38
2022-12-08T03:24:49.271Z,7.65
2022-12-08T03:27:19.994Z,7.47
2022-12-08T03:29:53.869Z,7.65
2022-12-08T03:32:26.397Z,7.47
2022-12-08T03:34:54.402Z,7.50
2022-12-08T03:37:21.525Z,7.60
2022-12-08T03:39:48.633Z,7.30
2022-12-08T03:42:15.313Z,7.43
2022-12-08T03:44:41.960Z,6.40
2022-12-08T03:47:08.714Z,7.47
2022-12-08T03:49:35.415Z,8.43
2022-12-08T03:52:02.172Z,9.07
2022-12-08T03:54:28.944Z,8.43
2022-12-08T03:56:55.948Z,7.55
2022-12-08T03:59:22.587Z,8.02
2022-12-08T04:01:49.356Z,7.03
2022-12-08T04:04:16.010Z,7.35
2022-12-08T04:06:42.654Z,8.35
2022-12-08T04:09:09.441Z,7.55
2022-12-08T04:11:36.302Z,7.57
2022-12-08T04:14:02.923Z,7.47
2022-12-08T04:16:29.654Z,7.43
2022-12-08T04:18:56.434Z,8.40
2022-12-08T04:21:23.111Z,6.78
2022-12-08T04:23:49.998Z,7.65
2022-12-08T04:26:16.997Z,6.88
2022-12-08T04:28:43.784Z,7.57
2022-12-08T04:31:10.479Z,7.05
2022-12-08T04:33:37.257Z,7.45
2022-12-08T04:36:05.837Z,6.05
2022-12-08T04:38:33.722Z,6.65
2022-12-08T04:41:00.757Z,7.07
2022-12-08T04:43:27.399Z,6.50
2022-12-08T04:45:54.150Z,5.70
2022-12-08T04:48:20.813Z,4.53
2022-12-08T04:50:47.603Z,5.78
2022-12-08T04:53:14.833Z,5.47
2022-12-08T04:55:44.094Z,4.88
2022-12-08T04:58:16.129Z,5.88
2022-12-08T05:00:43.085Z,6.93
2022-12-08T05:03:09.932Z,5.57
2022-12-08T05:05:36.833Z,5.38
2022-12-08T05:08:03.963Z,5.57
2022-12-08T05:10:30.974Z,4.97
2022-12-08T05:12:59.269Z,5.75
2022-12-08T05:15:26.155Z,4.80
2022-12-08T05:17:53.031Z,6.15
2022-12-08T05:20:19.677Z,5.50
2022-12-08T05:22:46.375Z,5.85
2022-12-08T05:25:13.084Z,5.57
2022-12-08T05:27:39.725Z,6.15
2022-12-08T05:30:07.298Z,5.90
2022-12-08T05:32:34.138Z,6.07
2022-12-08T05:35:00.822Z,5.05
2022-12-08T05:37:27.485Z,5.82
2022-12-08T05:39:54.276Z,5.63
2022-12-08T05:42:24.729Z,6.20
2022-12-08T05:44:52.181Z,5.90
2022-12-08T05:47:18.888Z,5.30
2022-12-08T05:49:45.572Z,6.05
2022-12-08T05:52:12.266Z,6.55
2022-12-08T05:54:39.005Z,5.97
2022-12-08T05:57:05.658Z,6.38
2022-12-08T05:59:32.487Z,5.60
2022-12-08T06:01:59.243Z,5.93
2022-12-08T06:04:25.942Z,5.53
2022-12-08T06:06:52.581Z,5.88
2022-12-08T06:09:19.286Z,5.95
2022-12-08T06:11:47.161Z,6.63
2022-12-08T06:14:13.889Z,5.78
2022-12-08T06:16:40.555Z,6.57
2022-12-08T06:19:07.263Z,5.30
2022-12-08T06:21:34.072Z,5.35
2022-12-08T06:24:00.831Z,5.85
2022-12-08T06:26:27.557Z,5.80
2022-12-08T06:28:54.685Z,5.72
2022-12-08T06:31:23.965Z,5.35
2022-12-08T06:33:51.535Z,5.22
2022-12-08T06:36:20.686Z,6.22
2022-12-08T06:38:47.854Z,6.20
2022-12-08T06:41:15.035Z,6.80
2022-12-08T06:43:42.219Z,6.20
2022-12-08T06:46:12.170Z,7.03
2022-12-08T06:48:39.041Z,6.72
2022-12-08T06:51:08.020Z,6.90
2022-12-08T06:53:34.975Z,5.43
2022-12-08T06:56:01.845Z,5.47
2022-12-08T06:58:28.645Z,5.82
2022-12-08T07:00:55.518Z,5.50
2022-12-08T07:03:22.199Z,5.57
2022-12-08T07:05:49.039Z,4.55
2022-12-08T07:08:15.888Z,4.72
2022-12-08T07:10:42.812Z,6.00
2022-12-08T07:13:09.583Z,5.28
2022-12-08T07:15:36.553Z,5.82
2022-12-08T07:18:03.408Z,5.20
2022-12-08T07:20:30.156Z,4.78
2022-12-08T07:22:56.875Z,4.95
2022-12-08T07:25:23.655Z,4.35
2022-12-08T07:27:51.632Z,4.38
2022-12-08T07:30:18.673Z,3.85
2022-12-08T07:32:45.660Z,5.03
2022-12-08T07:35:12.477Z,4.05
2022-12-08T07:37:39.583Z,3.97
2022-12-08T07:40:07.856Z,4.30
2022-12-08T07:42:35.029Z,4.03
2022-12-08T07:45:02.221Z,4.03
2022-12-08T07:47:28.913Z,4.70
2022-12-08T07:49:55.635Z,4.07
2022-12-08T07:52:23.236Z,3.83
2022-12-08T07:54:49.993Z,4.20
2022-12-08T07:57:16.900Z,3.90
2022-12-08T07:59:43.626Z,3.40
2022-12-08T08:02:26.392Z,3.40
2022-12-08T08:04:53.593Z,3.53
2022-12-08T08:07:20.348Z,3.58
2022-12-08T08:09:47.081Z,4.07
2022-12-08T08:15:01.603Z,3.42
2022-12-08T08:17:29.759Z,4.47
2022-12-08T08:19:57.022Z,3.67
2022-12-08T08:22:24.968Z,3.67
2022-12-08T08:24:51.637Z,5.63
2022-12-08T08:27:18.394Z,3.95
2022-12-08T08:29:45.074Z,2.78
2022-12-08T08:32:12.186Z,3.83
2022-12-08T08:34:39.018Z,4.88
2022-12-08T08:37:05.849Z,4.40
2022-12-08T08:39:32.604Z,3.22
2022-12-08T08:41:59.373Z,3.17
2022-12-08T08:44:26.090Z,3.38
2022-12-08T08:46:52.869Z,4.25
2022-12-08T08:49:20.098Z,4.45
2022-12-08T08:51:46.830Z,3.03
2022-12-08T08:54:13.500Z,2.67
2022-12-08T08:56:40.162Z,3.10
2022-12-08T08:59:06.872Z,3.03
2022-12-08T09:01:34.221Z,3.75
2022-12-08T09:04:01.579Z,3.20
2022-12-08T09:06:28.744Z,2.65
2022-12-08T09:08:55.581Z,2.70
2022-12-08T09:11:25.728Z,5.20
2022-12-08T09:13:53.735Z,4.80
2022-12-08T09:16:21.084Z,4.75
2022-12-08T09:18:51.192Z,4.80
2022-12-08T09:21:22.732Z,4.43
2022-12-08T09:23:59.569Z,5.53
2022-12-08T09:26:27.738Z,5.80
2022-12-08T09:28:55.945Z,5.40
2022-12-08T09:31:23.446Z,5.78
2022-12-08T09:33:53.840Z,5.30
2022-12-08T09:36:20.977Z,5.10
2022-12-08T09:38:49.084Z,5.72
2022-12-08T09:41:38.860Z,5.82
2022-12-08T09:44:44.075Z,6.18
2022-12-08T09:47:28.394Z,5.78
2022-12-08T09:50:04.444Z,6.57
2022-12-08T09:52:40.782Z,6.72
2022-12-08T09:55:45.236Z,5.28
2022-12-08T09:58:19.866Z,6.20
2022-12-08T10:00:46.857Z,6.03
2022-12-08T10:03:16.855Z,7.75
2022-12-08T10:06:04.353Z,4.90
2022-12-08T10:08:44.176Z,3.58
2022-12-08T10:11:16.393Z,3.83
2022-12-08T10:14:04.060Z,3.10
2022-12-08T10:16:41.759Z,4.43
2022-12-08T10:19:20.144Z,2.80
2022-12-08T10:21:46.912Z,5.53
2022-12-08T10:24:24.492Z,5.22
2022-12-08T10:26:51.424Z,4.53
2022-12-08T10:29:18.872Z,5.70
2022-12-08T10:31:45.628Z,6.03
2022-12-08T10:34:20.707Z,5.60
2022-12-08T10:36:51.233Z,5.28
2022-12-08T10:39:43.718Z,6.05
2022-12-08T10:42:13.398Z,5.28
2022-12-08T10:45:17.226Z,7.07
2022-12-08T10:47:59.388Z,5.63
2022-12-08T10:50:41.384Z,24.92
2022-12-08T10:53:08.015Z,5.07
2022-12-08T10:55:45.075Z,4.50
2022-12-08T10:58:36.354Z,4.68
2022-12-08T11:01:06.231Z,5.45
2022-12-08T11:03:47.664Z,4.68
2022-12-08T11:06:25.358Z,4.65
2022-12-08T11:08:55.391Z,6.53
2022-12-08T11:11:36.656Z,4.57
2022-12-08T11:14:07.686Z,7.28
2022-12-08T11:16:35.692Z,7.70
2022-12-08T11:19:07.943Z,5.18
2022-12-08T11:21:37.944Z,4.05
2022-12-08T11:24:28.110Z,3.60
2022-12-08T11:27:03.451Z,3.60
2022-12-08T11:29:32.633Z,3.75
2022-12-08T11:32:08.684Z,5.05
2022-12-08T11:34:49.586Z,2.25
2022-12-08T11:37:32.931Z,2.22
2022-12-08T11:40:07.314Z,1.98
2022-12-08T11:42:58.484Z,2.30
2022-12-08T11:45:30.210Z,2.15
2022-12-08T11:48:12.259Z,2.88
2022-12-08T11:51:03.026Z,2.30
2022-12-08T11:53:47.203Z,1.98
2022-12-08T11:56:22.351Z,2.15
2022-12-08T11:58:55.854Z,2.10
2022-12-08T12:01:26.611Z,2.33
2022-12-08T12:03:59.571Z,1.73
2022-12-08T12:07:00.866Z,2.55
2022-12-08T12:09:57.984Z,4.53
2022-12-08T12:12:51.621Z,5.38
2022-12-08T12:15:50.450Z,7.28
2022-12-08T12:18:39.025Z,3.30
2022-12-08T12:21:26.318Z,3.50
2022-12-08T12:24:04.845Z,4.20
2022-12-08T12:26:37.161Z,3.10
2022-12-08T12:31:46.908Z,2.85
2022-12-08T12:34:24.166Z,2.75
2022-12-08T12:36:55.371Z,2.83
2022-12-08T12:39:27.153Z,2.72
2022-12-08T12:42:00.485Z,2.55
2022-12-08T12:44:29.816Z,2.72
2022-12-08T12:47:02.091Z,2.95
2022-12-08T12:49:41.077Z,3.65
2022-12-08T12:52:10.559Z,5.40
2022-12-08T12:55:02.275Z,7.25
2022-12-08T12:57:40.019Z,2.42
2022-12-08T13:00:17.909Z,2.30
2022-12-08T13:02:44.642Z,2.00
2022-12-08T13:05:25.978Z,2.10
2022-12-08T13:07:55.514Z,2.80
2022-12-08T13:11:06.713Z,2.33
2022-12-08T13:13:33.654Z,2.40
2022-12-08T13:16:17.171Z,2.25
2022-12-08T13:18:50.920Z,2.05
2022-12-08T13:21:21.598Z,3.45
2022-12-08T13:24:09.152Z,2.53
2022-12-08T13:26:45.223Z,2.80
2022-12-08T13:29:21.204Z,2.50
2022-12-08T13:32:01.846Z,2.70
2022-12-08T13:34:41.996Z,3.30
2022-12-08T13:37:28.886Z,2.85
2022-12-08T13:39:58.842Z,3.30
2022-12-08T13:42:42.314Z,4.30
2022-12-08T13:45:27.967Z,2.38
2022-12-08T13:48:55.918Z,4.35
2022-12-08T13:57:30.315Z,2.65
2022-12-08T14:00:20.809Z,2.30
2022-12-08T14:02:55.270Z,3.08
2022-12-08T14:05:47.719Z,3.33
2022-12-08T14:11:35.601Z,3.45
2022-12-08T14:14:27.280Z,3.60
2022-12-08T14:17:10.968Z,4.10
2022-12-08T14:19:37.739Z,3.40
2022-12-08T14:22:17.659Z,3.30
2022-12-08T14:24:46.288Z,9.75
2022-12-08T14:27:16.836Z,8.13
2022-12-08T14:29:48.557Z,5.68
2022-12-08T14:32:33.968Z,7.78
2022-12-08T14:35:25.058Z,3.22
2022-12-08T14:37:56.058Z,3.85
2022-12-08T14:40:25.605Z,2.90
2022-12-08T14:43:17.788Z,3.88
2022-12-08T14:45:44.441Z,3.95
2022-12-08T14:48:33.528Z,3.65
2022-12-08T14:51:21.493Z,3.83
2022-12-08T14:54:01.487Z,4.03
2022-12-08T14:56:39.627Z,3.20
2022-12-08T14:59:30.366Z,4.40
2022-12-08T15:02:15.500Z,4.45
2022-12-08T15:05:11.013Z,9.00
2022-12-08T15:07:48.685Z,19.15
2022-12-08T15:10:15.336Z,15.18
2022-12-08T15:12:58.326Z,13.98
2022-12-08T15:15:25.623Z,14.32
2022-12-08T15:18:17.992Z,8.00
2022-12-08T15:20:51.867Z,22.73
2022-12-08T15:23:25.993Z,24.55
2022-12-08T15:25:53.203Z,7.72
2022-12-08T15:28:26.671Z,6.80
2022-12-08T15:30:56.946Z,8.25
2022-12-08T15:33:23.746Z,7.28
2022-12-08T15:35:51.230Z,5.55
2022-12-08T15:38:22.713Z,4.93
2022-12-08T15:40:49.710Z,4.83
2022-12-08T15:43:16.403Z,3.83
2022-12-08T15:45:57.522Z,4.40
2022-12-08T15:48:28.029Z,5.20
2022-12-08T15:50:56.233Z,5.22
2022-12-08T15:53:23.286Z,4.88
2022-12-08T15:56:18.922Z,4.95
2022-12-08T15:58:55.089Z,5.40
2022-12-08T16:01:23.132Z,6.90
2022-12-08T16:09:36.189Z,6.30
2022-12-08T16:12:22.100Z,5.20
2022-12-08T16:17:36.806Z,11.07
2022-12-08T16:20:06.179Z,9.43
2022-12-08T16:25:22.425Z,8.10
2022-12-08T16:28:36.782Z,5.55
2022-12-08T16:30:38.600Z,6.72
2022-12-08T16:33:05.727Z,6.47
2022-12-08T16:35:32.601Z,8.73
2022-12-08T16:37:59.756Z,11.48
2022-12-08T16:40:26.869Z,6.53
2022-12-08T16:42:53.600Z,5.57
2022-12-08T16:45:25.706Z,5.70
2022-12-08T16:48:01.838Z,5.53
2022-12-08T16:50:34.360Z,5.85
2022-12-08T16:53:11.113Z,6.70
2022-12-08T16:55:39.092Z,6.63
2022-12-08T16:58:06.450Z,8.38
2022-12-08T17:00:37.426Z,24.35
2022-12-08T17:03:08.622Z,8.35
2022-12-08T17:05:35.730Z,7.82
2022-12-08T17:08:02.566Z,7.88
2022-12-08T17:10:34.285Z,16.52
2022-12-08T17:13:01.882Z,7.40
2022-12-08T17:15:28.626Z,6.28
2022-12-08T17:17:55.315Z,6.13
2022-12-08T17:20:24.721Z,6.57
2022-12-08T17:22:55.398Z,7.38
2022-12-08T17:25:22.175Z,8.38
2022-12-08T17:27:48.909Z,7.32
2022-12-08T17:30:17.551Z,6.65
2022-12-08T17:32:44.689Z,7.40
2022-12-08T17:35:12.032Z,7.03
2022-12-08T17:37:38.726Z,7.35
2022-12-08T17:40:06.687Z,7.50
2022-12-08T17:42:33.510Z,8.52
2022-12-08T17:45:00.249Z,8.93
2022-12-08T17:47:27.030Z,8.95
2022-12-08T17:49:53.832Z,9.05
2022-12-08T17:52:20.483Z,8.77
2022-12-08T17:54:47.192Z,10.93
2022-12-08T17:57:14.072Z,8.18
2022-12-08T17:59:40.767Z,9.50
2022-12-08T18:02:11.678Z,10.35
2022-12-08T18:04:38.495Z,8.93
2022-12-08T18:07:05.604Z,8.38
2022-12-08T18:09:33.704Z,8.43
2022-12-08T18:12:00.490Z,7.43
2022-12-08T18:14:27.537Z,7.35
2022-12-08T18:16:54.328Z,7.95
2022-12-08T18:19:21.267Z,8.40
2022-12-08T18:21:47.931Z,9.40
2022-12-08T18:24:22.025Z,8.25
2022-12-08T18:26:50.577Z,7.90
2022-12-08T18:29:17.406Z,8.27
2022-12-08T18:31:44.186Z,8.07
2022-12-08T18:34:10.863Z,10.43
2022-12-08T18:36:37.598Z,17.35
2022-12-08T18:39:10.234Z,9.98
2022-12-08T18:41:37.616Z,8.50
2022-12-08T18:44:04.551Z,8.70
2022-12-08T18:46:31.285Z,8.73
2022-12-08T18:48:59.296Z,8.50
2022-12-08T18:51:25.959Z,7.85
2022-12-08T18:53:53.306Z,7.53
2022-12-08T18:56:27.391Z,7.93
2022-12-08T18:58:59.809Z,8.05
2022-12-08T19:01:30.006Z,7.82
2022-12-08T19:04:26.603Z,6.72
2022-12-08T19:06:46.115Z,7.60
2022-12-08T19:09:13.914Z,6.82
2022-12-08T19:11:41.882Z,7.57
2022-12-08T19:14:09.159Z,7.20
2022-12-08T19:16:36.098Z,7.22
2022-12-08T19:19:03.643Z,8.27
2022-12-08T19:21:30.367Z,8.02
2022-12-08T19:23:58.461Z,8.88
2022-12-08T19:26:26.918Z,9.13
2022-12-08T19:28:53.931Z,8.63
2022-12-08T19:31:20.735Z,9.75
2022-12-08T19:33:47.424Z,9.02
2022-12-08T19:36:17.883Z,11.52
2022-12-08T19:39:03.408Z,19.08
2022-12-08T19:41:49.069Z,16.58
2022-12-08T19:44:36.120Z,9.10
2022-12-08T19:47:04.058Z,9.00
2022-12-08T19:49:31.027Z,14.98
2022-12-08T19:51:58.128Z,12.65
2022-12-08T19:54:25.211Z,20.00
2022-12-08T19:56:51.889Z,8.65
2022-12-08T19:59:19.265Z,9.25
2022-12-08T20:01:48.329Z,8.20
2022-12-08T20:04:16.280Z,8.07
2022-12-08T20:06:43.992Z,14.43
2022-12-08T20:09:11.922Z,18.23
2022-12-08T20:11:39.338Z,16.70
2022-12-08T20:14:06.087Z,9.18
2022-12-08T20:16:32.905Z,8.30
2022-12-08T20:18:59.997Z,15.70
2022-12-08T20:21:26.802Z,10.90
2022-12-08T20:23:53.800Z,8.05
2022-12-08T20:26:22.298Z,9.45
2022-12-08T20:28:49.596Z,9.70
2022-12-08T20:31:28.409Z,10.63
2022-12-08T20:33:55.443Z,14.15
2022-12-08T20:36:22.700Z,9.77
2022-12-08T20:38:51.337Z,9.85
2022-12-08T20:41:18.632Z,11.80
2022-12-08T20:43:46.762Z,9.90
2022-12-08T20:46:16.466Z,8.70
2022-12-08T20:48:44.345Z,9.40
2022-12-08T20:51:19.276Z,9.77
2022-12-08T20:53:46.769Z,10.25
2022-12-08T20:56:16.467Z,10.15
2022-12-08T20:58:43.504Z,9.73
2022-12-08T21:01:12.326Z,9.05
2022-12-08T21:03:39.758Z,9.52
2022-12-08T21:06:07.479Z,9.90
2022-12-08T21:08:34.554Z,9.45
2022-12-08T21:11:02.295Z,9.13
2022-12-08T21:13:29.468Z,9.43
2022-12-08T21:15:56.700Z,8.25
2022-12-08T21:18:24.126Z,8.88
2022-12-08T21:20:51.638Z,8.13
2022-12-08T21:23:18.561Z,8.55
2022-12-08T21:25:46.959Z,9.50
2022-12-08T21:28:13.876Z,8.90
2022-12-08T21:30:41.155Z,8.32
2022-12-08T21:33:08.186Z,9.73
2022-12-08T21:35:34.915Z,8.77
2022-12-08T21:38:01.880Z,8.98
2022-12-08T21:40:28.675Z,9.38
2022-12-08T21:42:55.424Z,12.07
2022-12-08T21:45:22.306Z,10.02
2022-12-08T21:47:50.112Z,9.95
2022-12-08T21:50:17.338Z,10.25
2022-12-08T21:52:46.503Z,8.13
2022-12-08T21:55:15.445Z,9.48
2022-12-08T21:57:42.795Z,9.43
2022-12-08T22:00:14.409Z,10.10
2022-12-08T22:02:41.246Z,7.22
2022-12-08T22:05:08.599Z,9.88
2022-12-08T22:07:38.549Z,9.10
2022-12-08T22:10:07.660Z,11.35
2022-12-08T22:12:35.885Z,10.88
2022-12-08T22:15:05.705Z,10.95
2022-12-08T22:17:37.284Z,10.18
2022-12-08T22:20:06.729Z,10.75
2022-12-08T22:22:35.052Z,10.38
2022-12-08T22:25:06.033Z,10.10
2022-12-08T22:27:35.898Z,11.13
2022-12-08T22:30:03.399Z,9.82
2022-12-08T22:32:30.407Z,9.93
2022-12-08T22:34:57.192Z,11.35
2022-12-08T22:37:24.238Z,11.07
2022-12-08T22:52:17.309Z,11.50
2022-12-08T22:54:44.198Z,11.60
2022-12-08T22:57:11.127Z,10.48
2022-12-08T22:59:40.522Z,10.68
2022-12-08T23:02:07.999Z,11.32
2022-12-08T23:04:35.344Z,12.60
2022-12-08T23:07:02.960Z,12.10
2022-12-08T23:09:29.577Z,12.50
2022-12-08T23:11:56.777Z,11.90
2022-12-08T23:14:23.617Z,12.73
2022-12-08T23:16:50.481Z,11.65
2022-12-08T23:19:17.420Z,12.38
2022-12-08T23:21:44.329Z,13.18
2022-12-08T23:24:10.961Z,11.18
2022-12-08T23:26:37.722Z,10.75
2022-12-08T23:29:04.627Z,10.27
2022-12-08T23:31:31.607Z,10.70
2022-12-08T23:33:58.749Z,11.55
2022-12-08T23:36:26.471Z,9.77
2022-12-08T23:38:54.535Z,10.43
2022-12-08T23:41:21.547Z,12.55
2022-12-08T23:43:50.905Z,11.15
2022-12-08T23:46:20.372Z,10.90
2022-12-08T23:48:48.043Z,11.90
2022-12-08T23:51:15.503Z,10.57
2022-12-08T23:53:43.123Z,10.98
2022-12-08T23:56:12.742Z,10.60
2022-12-08T23:58:40.088Z,9.75
